Forside
METAR-TAF:

METAR-TAF

Lufthavne :

Lansing Municipal Airport

Lansing, Illinois, USA

Breddekreds: 41-32-24N, længdekreds: 087-31-56W, højde: 188 m

Aktuelle vejr

Denne rapport blev lavet for 15 minutter siden, kl. 21:15 UTC
Vind stille
Temperatur 0°C
Fugtighed 86%
Tryk 1013 hPa
Sigt: 11.3 km
Overskyet i en højde af 900 ft

METAR: KIGQ 262115Z AUTO 00000KT 7SM OVC009 00/M02 A2990 RMK AO2 T10051016

Tid: 15:30 (21:30 UTC)


TAF: fraværende

Vejrobservationer og prognoser fra mere end 4000 lufthavne (METAR og TAF).

De gule og røde prikker repræsenterer de meteorologiske stationer.

Flyt musen over at se navnet på stationen.

Så klik over at se vejr observationer og prognoser.

At skifte det kort: Klik på de grønne knapper med et sort kors for at zoome ind; på den grønne knap med en bindestreg for at zoome ud; eller på de grønne pile for tilstødende kort.


METAR-TAF: